Home > Products > Valid Products > TAF

000
FTUS46 KPQR 241604 AAB
TAFONP
TAF AMD
KONP 241604Z 2416/2512 24011KT P6SM -SHRA SCT020 BKN035 BKN060
      TEMPO 2417/2421 5SM -SHRA BKN025 OVC040
     FM242100 23011KT P6SM -SHRA SCT025 BKN035 BKN050
     FM250400 22008KT P6SM -SHRA BKN025 BKN040=



000
FTUS46 KPQR 241602 AAC
TAFAST
TAF AMD
KAST 241602Z 2416/2512 22012KT P6SM -SHRA SCT025 BKN040 BKN060
      TEMPO 2417/2421 BKN025 BKN040
     FM242100 22012KT P6SM -SHRA SCT025 BKN035 BKN050=



000
FTUS46 KPQR 241601 AAC
TAFSLE
TAF AMD
KSLE 241601Z 2416/2512 21010KT P6SM -SHRA SCT025 BKN045 BKN060
     FM242100 24012KT P6SM -SHRA SCT025 BKN040 BKN060
     FM250300 22005KT P6SM VCSH SCT040 BKN060=



000
FTUS46 KPQR 241600 AAC
TAFTTD
TAF AMD
KTTD 241600Z 2416/2512 20009KT P6SM -SHRA SCT025 BKN050
     FM250200 22004KT P6SM VCSH SCT025 BKN050=



000
FTUS46 KPQR 241411 AAB
TAFAST
TAF AMD
KAST 241411Z 2414/2512 24011KT P6SM -SHRA SCT015 BKN025 BKN050
     FM242100 22012KT P6SM -SHRA SCT025 BKN035 BKN050=



000
FTUS46 KPQR 241410 AAB
TAFTTD
TAF AMD
KTTD 241410Z 2414/2512 24007KT P6SM -SHRA SCT025 BKN050
     FM250200 18004KT P6SM VCSH SCT025 BKN050=



000
FTUS46 KPQR 241409 AAD
TAFHIO
TAF AMD
KHIO 241409Z 2414/2512 22008KT P6SM -SHRA SCT025 BKN050
     FM250100 22005KT P6SM VCSH SCT025 BKN040 BKN060
     FM250600 VRB03KT P6SM VCSH SCT025 OVC050=



000
FTUS46 KPQR 241408 AAD
TAFPDX
TAF AMD
KPDX 241408Z 2414/2512 20007KT P6SM -SHRA SCT025 BKN050
     FM241800 25012KT P6SM -SHRA SCT025 BKN050
     FM250300 20005KT P6SM VCSH SCT025 BKN050=



000
FTUS46 KPQR 241338 AAC
TAFPDX
TAF AMD
KPDX 241338Z 2414/2512 22008KT 4SM RA BR BKN014 OVC025CB
     FM241430 24009KT P6SM -SHRA BKN025 OVC045
     FM241800 26013KT P6SM -SHRA SCT025 BKN050
     FM250300 20005KT P6SM VCSH SCT025 BKN050=



000
FTUS46 KPQR 241321 AAC
TAFHIO
TAF AMD
KHIO 241321Z 2413/2512 18008KT 4SM RA BR SCT012 OVC020
     FM241430 25010KT P6SM -SHRA BKN025 OVC045
     FM241800 25012G20KT P6SM SCT025 BKN040
     FM250100 22005KT P6SM VCSH SCT025 BKN040 BKN060
     FM250600 VRB03KT P6SM VCSH SCT025 OVC050=



000
FTUS46 KPQR 241320 AAA
TAFAST
TAF AMD
KAST 241320Z 2413/2512 23008KT P6SM -SHRA SCT015 OVC025
     FM241500 23012G20KT P6SM -SHRA SCT015 BKN025 OVC045
     FM242100 22012KT P6SM -SHRA SCT025 BKN035 BKN050=



000
FTUS46 KPQR 241316 AAA
TAFTTD
TAF AMD
KTTD 241316Z 2413/2512 20014KT P6SM -RA SCT020 BKN030 OVC040
      TEMPO 2413/2415 3SM RA BR BKN018 OVC025
     FM241500 25012G20KT P6SM -SHRA BKN025 OVC045
     FM241800 23013KT P6SM -SHRA SCT025 BKN050
     FM250200 18004KT P6SM VCSH SCT025 BKN050=



000
FTUS46 KPQR 241315 AAB
TAFPDX
TAF AMD
KPDX 241315Z 2413/2512 22013G18KT P6SM -RA VCTS SCT017 OVC025CB
      TEMPO 2413/2414 3SM RA BR BKN017 OVC025
     FM241400 25012G20KT P6SM -SHRA BKN025 OVC045
     FM241800 23013KT P6SM -SHRA SCT025 BKN050
     FM250300 20005KT P6SM VCSH SCT025 BKN050=



000
FTUS46 KPQR 241224 AAB
TAFSLE
TAF AMD
KSLE 241224Z 2412/2512 19016KT P6SM -RA SCT015 BKN022 OVC050
      TEMPO 2413/2414 BKN012 OVC022
     FM241500 25011KT P6SM -SHRA SCT025 OVC045
     FM241800 25011G19KT P6SM -SHRA SCT025 BKN040 BKN060
     FM250300 22005KT P6SM VCSH SCT040 BKN060=



000
FTUS46 KPQR 241223 AAA
TAFONP
TAF AMD
KONP 241223Z 2412/2512 23009KT P6SM -SHRA SCT020 OVC060
      TEMPO 2412/2414 6SM -SHRA BKN015 OVC025
     FM241500 22010KT 6SM -SHRA SCT015 BKN025 OVC045
     FM242100 23006KT P6SM -SHRA SCT025 BKN035 BKN050=



000
FTUS46 KPQR 241159 AAA
TAFEUG
TAF AMD
KEUG 241159Z 2412/2512 18010KT P6SM -RA SCT020 OVC035
     FM241400 22011KT P6SM -SHRA SCT025 OVC045
     FM241800 26011G18KT P6SM -SHRA SCT025 BKN040 BKN060
     FM250100 22005KT P6SM SCT040 BKN060=



000
FTUS46 KPQR 241154 AAA
TAFPDX
TAF AMD
KPDX 241154Z 2412/2512 18013KT P6SM -RA SCT017 OVC025
      TEMPO 2412/2414 6SM -RA BR BKN017 OVC025
     FM241500 25012G20KT P6SM -SHRA BKN025 OVC045
     FM241800 23013KT P6SM -SHRA SCT025 BKN050
     FM250300 20005KT P6SM VCSH SCT025 BKN050=



000
FTUS46 KPQR 241146 AAA
TAFSLE
TAF AMD
KSLE 241146Z 2412/2512 19016G27KT P6SM -RA BKN015 BKN035 OVC050
     FM241500 25011KT P6SM -SHRA BKN025 OVC045
     FM241800 25011G19KT P6SM -SHRA SCT025 BKN040 BKN060
     FM250300 22005KT P6SM VCSH SCT040 BKN060=



000
FTUS46 KPQR 241141 AAB
TAFHIO
TAF AMD
KHIO 241141Z 2412/2512 16013G20KT P6SM -RA OVC012
     FM241400 25010KT P6SM -SHRA BKN025 OVC045
     FM241800 25012G20KT P6SM SCT025 BKN040
     FM250100 22005KT P6SM VCSH SCT025 BKN040 BKN060
     FM250600 VRB03KT P6SM VCSH SCT025 OVC050=



000
FTUS46 KPQR 241140
TAFAST
TAF
KAST 241140Z 2412/2512 25014G23KT P6SM -SHRA SCT015 OVC025
     FM241500 23012G20KT P6SM -SHRA SCT015 BKN025 OVC045
     FM242100 22012KT P6SM -SHRA SCT025 BKN035 BKN050=



000
FTUS46 KPQR 241140
TAFSLE
TAF
KSLE 241140Z 2412/2512 17016G27KT P6SM -RA SCT018 BKN035 OVC050
     FM241500 22011KT P6SM -SHRA BKN025 OVC045
     FM241900 22010KT P6SM -SHRA SCT025 BKN040 BKN060
     FM250300 22005KT P6SM VCSH SCT040 BKN060=



000
FTUS46 KPQR 241140
TAFPDX
TAF
KPDX 241140Z 2412/2512 17013KT P6SM -RA SCT022 BKN050 OVC110
     FM241500 25012G20KT P6SM -SHRA BKN025 OVC045
     FM241800 23013KT P6SM -SHRA SCT025 BKN050
     FM250300 20005KT P6SM VCSH SCT025 BKN050=



000
FTUS46 KPQR 241140
TAFTTD
TAF
KTTD 241140Z 2412/2512 17004KT P6SM -RA SCT020 BKN030 OVC060
     FM241500 25012G20KT P6SM -SHRA BKN025 OVC045
     FM241800 23013KT P6SM -SHRA SCT025 BKN050
     FM250200 18004KT P6SM VCSH SCT025 BKN050=



000
FTUS46 KPQR 241140
TAFONP
TAF
KONP 241140Z 2412/2512 20016G25KT 2SM -RA OVC003
     FM241500 22010KT 6SM -SHRA SCT015 BKN025 OVC045
     FM242100 23006KT P6SM -SHRA SCT025 BKN035 BKN050=



000
FTUS46 KPQR 241140
TAFEUG
TAF
KEUG 241140Z 2412/2512 18010KT P6SM -RA SCT020 OVC040
     FM241400 22011KT P6SM -SHRA BKN025 OVC045
     FM241800 26011G18KT P6SM -SHRA SCT025 BKN040 BKN060
     FM250100 22005KT P6SM SCT040 BKN060=



000
FTUS46 KPQR 241140
TAFHIO
TAF
KHIO 241140Z 2412/2512 16013KT P6SM -RA OVC012
     FM241400 25010KT P6SM -SHRA BKN025 OVC045
     FM241800 25012G20KT P6SM SCT025 BKN040
     FM250100 22005KT P6SM VCSH SCT025 BKN040 BKN060
     FM250600 VRB03KT P6SM VCSH SCT025 OVC050=



000
FTUS46 KPQR 241140 AAA
TAFHIO
TAF AMD
KHIO 241140Z 2412/2512 16013G20KT P6SM -RA OVC012
     FM241400 25010KT P6SM -SHRA BKN025 OVC045
     FM241800 25012G20KT P6SM SCT025 BKN040
     FM250100 22005KT P6SM VCSH SCT025 BKN040 BKN060
     FM250600 VRB03KT P6SM VCSH SCT025 OVC050=



000
FTUS46 KPQR 241101 AAA
TAFAST
TAF AMD
KAST 241101Z 2411/2506 25018G25KT 2SM RADZ BR BKN005 OVC014
     FM241200 25012KT 5SM -RADZ BR BKN015 OVC025
     FM241500 22012G20KT P6SM -SHRA SCT015 BKN025 OVC045
     FM242100 22012KT P6SM -SHRA SCT025 BKN035 BKN050=



000
FTUS46 KPQR 240831 AAA
TAFPDX
TAF AMD
KPDX 240831Z 2409/2506 18014G21KT 6SM -RA BR BKN022 OVC050
     FM241100 19014KT 6SM -RA BR BKN020 OVC030
     FM241400 22012G20KT P6SM -SHRA BKN025 OVC045
     FM241800 23013KT P6SM -SHRA SCT025 BKN050
     FM250100 22005KT P6SM VCSH SCT025 BKN050=



000
FTUS46 KPQR 240728 AAB
TAFEUG
TAF AMD
KEUG 240728Z 2407/2506 18014KT P6SM -RA SCT025 OVC050
     FM240830 19014G22KT 6SM RA BR SCT015 OVC025
     FM241400 22010G18KT P6SM -SHRA BKN025 OVC045
     FM241700 22010KT P6SM -SHRA SCT025 BKN040 BKN060
     FM250100 22005KT P6SM SCT050=



000
FTUS46 KPQR 240639 AAA
TAFTTD
TAF AMD
KTTD 240639Z 2407/2506 18005KT P6SM -RA SCT022 OVC040
     FM240800 19007KT 4SM RA BR BKN020 OVC035
     FM241300 22010KT P6SM -SHRA BKN025 OVC045
     FM250100 24006KT P6SM -SHRA SCT025 BKN040 BKN060=



000
FTUS46 KPQR 240637 AAA
TAFHIO
TAF AMD
KHIO 240637Z 2407/2506 16010G18KT 5SM RA BR SCT017 OVC025
     FM241100 19012G22KT P6SM SHRA BKN015 OVC025
     FM241400 22010G18KT P6SM -SHRA BKN025 OVC045
      TEMPO 2421/2501 SCT025 BKN040
     FM250100 22005KT P6SM VCSH SCT025 BKN040 BKN060=



000
FTUS46 KPQR 240531 AAA
TAFEUG
TAF AMD
KEUG 240531Z 2406/2506 19012KT 5SM -RA BR BKN025 OVC035
     FM240800 19014G22KT 4SM RA BR BKN015 OVC025
     FM241500 22010G18KT P6SM -SHRA BKN025 OVC045
     FM241900 22010KT P6SM -SHRA SCT025 BKN040 BKN060
     FM250100 22005KT P6SM SCT050=



000
FTUS46 KPQR 240530
TAFPDX
TAF
KPDX 240530Z 2406/2506 15012KT 6SM -RA BR OVC015
     FM241300 22012G20KT P6SM -SHRA BKN025 OVC045
     FM242100 22010KT P6SM -SHRA BKN025 BKN040
      TEMPO 2421/2501 SCT025 BKN040
     FM250100 22005KT P6SM VCSH SCT025 BKN040=



000
FTUS46 KPQR 240530
TAFONP
TAF
KONP 240530Z 2406/2506 20022G35KT 2SM RADZ BR OVC005
     FM241200 22013KT 4SM -RADZ BR BKN015 OVC025
     FM241500 22010KT 6SM -SHRA SCT015 BKN025 OVC045
     FM242100 23006KT P6SM -SHRA SCT025 BKN035 BKN050=



000
FTUS46 KPQR 240530
TAFHIO
TAF
KHIO 240530Z 2406/2506 16010G18KT 5SM RA BR SCT008 OVC015
     FM241100 19012G22KT P6SM SHRA BKN015 OVC025
     FM241400 22010G18KT P6SM -SHRA BKN025 OVC045
      TEMPO 2421/2501 SCT025 BKN040
     FM250100 22005KT P6SM VCSH SCT025 BKN040 BKN060=



000
FTUS46 KPQR 240530
TAFSLE
TAF
KSLE 240530Z 2406/2506 16015G25KT 6SM -RA SCT012 BKN018 OVC050
     FM241100 20015G25KT P6SM SHRA BKN015 OVC025
     FM241500 22011KT P6SM -SHRA BKN025 OVC045
     FM241900 22010KT P6SM -SHRA SCT025 BKN040 BKN060
     FM250100 22005KT P6SM VCSH SCT040 BKN060=



000
FTUS46 KPQR 240530
TAFAST
TAF
KAST 240530Z 2406/2506 19020G32KT 2SM RADZ BR OVC008
     FM241100 23012KT 5SM -RADZ BR BKN015 OVC025
     FM241500 22012G20KT P6SM -SHRA SCT015 BKN025 OVC045
     FM242100 22012KT P6SM -SHRA SCT025 BKN035 BKN050=



000
FTUS46 KPQR 240530
TAFEUG
TAF
KEUG 240530Z 2406/2506 19012G20KT 5SM -RA BR BKN025 OVC035
     FM240800 19010KT 4SM RA BR BKN015 OVC025
     FM241500 22010G18KT P6SM -SHRA BKN025 OVC045
     FM241900 22010KT P6SM -SHRA SCT025 BKN040 BKN060
     FM250100 22005KT P6SM SCT050=



000
FTUS46 KPQR 240530
TAFTTD
TAF
KTTD 240530Z 2406/2506 09005KT P6SM -RA SCT015 BKN025 OVC040
     FM240700 13007KT 4SM RA BR BKN020 OVC035
     FM241300 22010KT P6SM -SHRA BKN025 OVC045
     FM250100 24006KT P6SM -SHRA SCT025 BKN040 BKN060=



000
FTUS46 KPQR 240306 AAB
TAFSLE
TAF AMD
KSLE 240306Z 2403/2424 16015G25KT 6SM -RA OVC012
     FM241000 20015G25KT P6SM SHRA BKN015 OVC025
     FM241500 22011KT P6SM -SHRA BKN025 OVC045
     FM241900 24010KT P6SM -SHRA SCT025 BKN040 BKN060=



000
FTUS46 KPQR 240302 AAA
TAFHIO
TAF AMD
KHIO 240302Z 2403/2424 16010G18KT 5SM RA BR BKN008 OVC015
     FM241000 19012G22KT P6SM SHRA BKN015 OVC025
     FM241400 22009KT P6SM -SHRA BKN025 OVC045
     FM241900 22012G20KT P6SM -SHRA SCT025 BKN040 BKN060=



000
FTUS46 KPQR 240258 AAA
TAFPDX
TAF AMD
KPDX 240258Z 2403/2424 15012KT P6SM -RA SCT015 OVC025
      TEMPO 2403/2407 4SM RA BR OVC015
     FM240700 19012G22KT 4SM RA BR OVC015
     FM241400 22011KT P6SM -SHRA BKN025 OVC045
     FM241900 22012G20KT P6SM -SHRA SCT025 BKN040 BKN060=



000
FTUS46 KPQR 240256 AAA
TAFAST
TAF AMD
KAST 240256Z 2403/2424 19015G25KT 2SM RADZ BR SCT008 OVC015
     FM240600 19020G35KT 2SM RADZ BR OVC008
     FM241200 23012KT 5SM -RADZ BR BKN015 OVC025
     FM241500 23011KT P6SM -SHRA SCT015 BKN025 OVC045
     FM241800 22012KT P6SM -SHRA SCT025 BKN035 BKN050=



000
FTUS46 KPQR 240043 AAA
TAFSLE
TAF AMD
KSLE 240043Z 2401/2424 16011KT 4SM RA BR BKN020 OVC040
     FM241500 22011KT P6SM -SHRA BKN025 OVC045
     FM241900 24010KT P6SM -SHRA SCT025 BKN040 BKN060=



000
FTUS46 KPQR 240042 AAA
TAFONP
TAF AMD
KONP 240042Z 2401/2424 20022G35KT 2SM RADZ BR OVC005
     FM241200 22018G29KT 4SM -RADZ BR BKN015 OVC025
     FM241500 22013KT 6SM -SHRA SCT015 BKN025 OVC045
     FM241800 23012KT P6SM -SHRA SCT025 BKN035 BKN050=



000
FTUS46 KPQR 232338
TAFAST
TAF
KAST 232338Z 2400/2424 19013G22KT 4SM -RADZ BR SCT008 BKN011 OVC025
     FM240600 19019G38KT 2SM RADZ BR SCT008 BKN012 OVC025
     FM241200 23012KT 5SM -RADZ BR BKN015 OVC025
     FM241500 23011KT P6SM -SHRA SCT015 BKN025 OVC045
     FM241800 22012KT P6SM -SHRA SCT025 BKN035 BKN050=



000
FTUS46 KPQR 232338
TAFPDX
TAF
KPDX 232338Z 2400/2424 19013G22KT P6SM -RA SCT025 OVC050
     FM240200 18011G18KT P6SM -RA FEW015 BKN025 OVC040
     FM240700 19012G22KT 4SM RA BR BKN020 OVC035
     FM241400 22011KT P6SM -SHRA BKN025 OVC045
     FM241900 22012G20KT P6SM -SHRA SCT025 BKN040 BKN060=



000
FTUS46 KPQR 232338
TAFONP
TAF
KONP 232338Z 2400/2424 20022G35KT 3SM -RADZ BR BKN009 OVC020
     FM240600 20028G48KT 2SM RADZ BR SCT004 BKN009 OVC020
     FM241200 22018G29KT 4SM -RADZ BR BKN015 OVC025
     FM241500 22013KT 6SM -SHRA SCT015 BKN025 OVC045
     FM241800 23012KT P6SM -SHRA SCT025 BKN035 BKN050=



000
FTUS46 KPQR 232338
TAFHIO
TAF
KHIO 232338Z 2400/2424 18010KT 5SM -RA BR BKN018 OVC025
     FM241400 22009KT P6SM -SHRA BKN025 OVC045
     FM241900 22012G20KT P6SM -SHRA SCT025 BKN040 BKN060=



000
FTUS46 KPQR 232338
TAFSLE
TAF
KSLE 232338Z 2400/2424 16012G22KT P6SM -RA SCT020 BKN040 OVC060
     FM240300 18011G20KT 6SM -RA BKN025 OVC040
     FM240800 19011G22KT 4SM RA BR BKN020 OVC040
     FM241500 22011KT P6SM -SHRA BKN025 OVC045
     FM241900 24010KT P6SM -SHRA SCT025 BKN040 BKN060=



000
FTUS46 KPQR 232338
TAFEUG
TAF
KEUG 232338Z 2400/2424 19012G20KT 5SM -RA BR BKN025 OVC035
     FM240800 19010KT 4SM RA BR BKN015 OVC025
     FM241500 22011KT P6SM -SHRA BKN025 OVC045
     FM241900 22010KT P6SM -SHRA SCT025 BKN040 BKN060=



000
FTUS46 KPQR 232338
TAFTTD
TAF
KTTD 232338Z 2400/2424 21010G18KT P6SM -RA SCT025 BKN040 OVC050
     FM240200 20008KT P6SM -RA SCT015 BKN025 OVC040
     FM240800 19010KT 4SM RA BR BKN020 OVC035
     FM241400 22010KT P6SM -SHRA BKN025 OVC045
     FM241900 24011KT P6SM -SHRA SCT025 BKN040 BKN060=



000
FTUS46 KPQR 232159 AAC
TAFPDX
TAF AMD
KPDX 232159Z 2322/2418 19013G22KT P6SM -RA SCT025 OVC050
     FM240100 18012KT P6SM -RA SCT015 BKN025 OVC045
     FM240600 19014G24KT 4SM RA BR BKN020 OVC035
     FM241400 22013G22KT P6SM -SHRA BKN025 BKN045=



000
FTUS46 KPQR 232109 AAB
TAFTTD
TAF AMD
KTTD 232109Z 2321/2418 20009KT P6SM -RA SCT025 BKN040 OVC050
     FM240200 20008KT P6SM -RA SCT015 BKN025 OVC040
     FM240700 19011KT 4SM RA BR BKN020 OVC035
     FM241500 24011G22KT P6SM -SHRA BKN025 BKN045=



000
FTUS46 KPQR 232108 AAB
TAFHIO
TAF AMD
KHIO 232108Z 2321/2418 18011KT P6SM -RA SCT025 BKN035 OVC050
     FM240100 18010KT P6SM -RA SCT015 BKN025 OVC040
     FM240600 19011G22KT 4SM RA BR BKN018 OVC025
     FM241300 22012KT P6SM -SHRA BKN025 BKN045=



000
FTUS46 KPQR 232107 AAB
TAFPDX
TAF AMD
KPDX 232107Z 2321/2418 19012KT P6SM -RA SCT025 OVC050
     FM240000 18012KT P6SM -RA SCT015 BKN025 OVC045
     FM240600 19014G24KT 4SM RA BR BKN020 OVC035
     FM241400 22013G22KT P6SM -SHRA BKN025 BKN045=



000
FTUS46 KPQR 231912 AAA
TAFONP
TAF AMD
KONP 231912Z 2319/2418 19022G35KT 2SM -RADZ BR BKN008 OVC020
     FM240500 19026G44KT 3SM RADZ BR SCT007 BKN011 OVC025
     FM241200 22016G26KT 5SM -RADZ BR BKN015 OVC025
     FM241500 23013KT P6SM -SHRA SCT015 BKN025 BKN040=



000
FTUS46 KPQR 231911 AAA
TAFTTD
TAF AMD
KTTD 231911Z 2319/2418 21011G22KT P6SM BKN025 OVC050
      TEMPO 2319/2323 -RA
     FM240000 20011KT P6SM -RA SCT015 BKN025 OVC035
     FM240700 19011G24KT 4SM RA BR BKN015 OVC025
     FM241500 21012G22KT P6SM -SHRA BKN025 BKN045=



000
FTUS46 KPQR 231909 AAA
TAFPDX
TAF AMD
KPDX 231909Z 2319/2418 19012G25KT P6SM BKN025 OVC050
      TEMPO 2320/2323 -RA
     FM232300 18013G23KT P6SM -RA SCT015 BKN025 OVC035
     FM240600 19016G30KT 4SM RA BR BKN015 OVC030
     FM241400 22012G22KT P6SM -SHRA BKN025 BKN045=



000
FTUS46 KPQR 231900 AAA
TAFHIO
TAF AMD
KHIO 231900Z 2319/2418 18011G20KT P6SM BKN015 BKN035 OVC050
      TEMPO 2319/2322 -RA
     FM232200 18010G17KT P6SM -RA SCT015 BKN025 OVC035
     FM240100 18010KT P6SM -RA SCT015 BKN025 OVC035
     FM240600 19013G24KT 4SM RA BR BKN015 OVC025
     FM241300 22012KT P6SM -SHRA BKN025 BKN045=



000
FTUS46 KPQR 231732
TAFAST
TAF
KAST 231732Z 2318/2418 18011G19KT P6SM -RADZ SCT008 BKN015 OVC035
     FM232200 19012G23KT 4SM -RADZ BR BKN015 OVC025
     FM240600 19019G38KT 3SM RADZ BR SCT008 BKN015 OVC025
     FM241200 23012KT 5SM -RADZ BR BKN015 OVC025
     FM241500 23011KT P6SM -SHRA SCT015 BKN025 BKN040=



000
FTUS46 KPQR 231732
TAFHIO
TAF
KHIO 231732Z 2318/2418 18011KT P6SM BKN015 BKN035 OVC050
      TEMPO 2318/2322 -RA
     FM232200 18010G17KT P6SM -RA SCT020 BKN035 OVC050
     FM240100 18010KT P6SM -RA SCT015 BKN025 OVC035
     FM240800 19013G24KT 4SM RA BR BKN015 OVC025
     FM241500 22012KT P6SM -SHRA BKN025 BKN045=



000
FTUS46 KPQR 231732
TAFEUG
TAF
KEUG 231732Z 2318/2418 19012G22KT P6SM SCT025 BKN035 OVC060
      TEMPO 2318/2321 -RA BKN025 OVC035
     FM232100 19012G22KT P6SM -RA SCT020 BKN035 OVC050
     FM240000 18011G20KT 6SM -RA BKN025 OVC035
     FM240800 19012G24KT 4SM RA BR BKN015 OVC025
     FM241500 21012KT P6SM -SHRA BKN025 BKN045=



000
FTUS46 KPQR 231732
TAFONP
TAF
KONP 231732Z 2318/2418 19015G28KT P6SM -RADZ BKN008 BKN015 OVC035
     FM232300 20022G32KT 4SM -RADZ BR BKN015 OVC025
     FM240600 19026G44KT 3SM RADZ BR SCT007 BKN011 OVC025
     FM241200 22016G26KT 5SM -RADZ BR BKN015 OVC025
     FM241500 23013KT P6SM -SHRA SCT015 BKN025 BKN040=



000
FTUS46 KPQR 231732
TAFTTD
TAF
KTTD 231732Z 2318/2418 19011KT P6SM SCT017 BKN035 OVC050
      TEMPO 2318/2322 -RA BKN017 OVC035
     FM232200 19010G18KT P6SM -RA SCT020 BKN035 OVC050
     FM240100 19011KT P6SM -RA SCT015 OVC025
     FM240800 19011G24KT 4SM RA BR BKN015 OVC025
     FM241500 21012G22KT P6SM -SHRA BKN025 BKN045=



000
FTUS46 KPQR 231732
TAFPDX
TAF
KPDX 231732Z 2318/2418 19011G22KT P6SM SCT017 BKN035 OVC050
      TEMPO 2318/2322 -RA BKN017 OVC035
     FM232200 18012G22KT P6SM -RA SCT020 BKN035 OVC050
     FM240100 18012G24KT P6SM -RA SCT015 BKN025 OVC035
     FM240800 19016G30KT 4SM RA BR BKN015 OVC030
     FM241500 22012G22KT P6SM -SHRA BKN025 BKN045=



000
FTUS46 KPQR 231732
TAFSLE
TAF
KSLE 231732Z 2318/2418 18017G26KT P6SM SCT025 BKN035 OVC060
      TEMPO 2318/2321 -RA BKN025 OVC035
     FM232100 18014G25KT P6SM -RA SCT020 BKN035 OVC050
     FM240000 18012G22KT 6SM -RA BKN025 OVC035
     FM240800 19011G24KT 4SM RA BR BKN015 OVC025
     FM241500 21012G22KT P6SM -SHRA BKN025 BKN045=



000
FTUS46 KPQR 231606 AAB
TAFHIO
TAF AMD
KHIO 231606Z 2316/2412 18006KT P6SM -RA BKN012 OVC030
     FM232100 18011KT P6SM -RA BKN025 OVC035
     FM240200 17011KT P6SM -RA SCT008 BKN015 OVC025
     FM240800 17011G18KT 5SM -RA BKN020 OVC030=



000
FTUS46 KPQR 231605 AAA
TAFONP
TAF AMD
KONP 231605Z 2316/2412 20015G24KT 4SM -RADZ BR BKN008 OVC020
     FM232200 20022G31KT 5SM -RADZ BR BKN008 OVC020
     FM240600 21026G40KT 2SM -RADZ BR SCT008 BKN012 OVC025=



000
FTUS46 KPQR 231604 AAA
TAFTTD
TAF AMD
KTTD 231604Z 2316/2412 VRB03KT P6SM -RA BKN015 OVC035
     FM232000 19006KT P6SM -RA BKN025 OVC035
     FM240200 19011KT P6SM -RA BKN015 OVC025=



000
FTUS46 KPQR 231603 AAA
TAFSLE
TAF AMD
KSLE 231603Z 2316/2412 19014G24KT P6SM -SHRA SCT025 BKN035 OVC060
     FM232200 19015G25KT P6SM -RA BKN025 OVC035
     FM240000 18012KT P6SM -RA SCT015 OVC025
     FM240700 18016G25KT P6SM -RA BKN030 OVC040=



000
FTUS46 KPQR 231516 AAA
TAFPDX
TAF AMD
KPDX 231516Z 2315/2412 19011KT P6SM -RA BKN015 OVC030
     FM232000 18012KT P6SM -RA BKN025 OVC035
     FM240200 18012KT P6SM -RA BKN015 OVC025
     FM240600 17015G25KT P6SM -RA SCT015 OVC030=



000
FTUS46 KPQR 231416 AAA
TAFHIO
TAF AMD
KHIO 231416Z 2314/2412 18006KT P6SM -RA SCT015 OVC040
      TEMPO 2314/2318 BKN015 OVC040
     FM231800 18011KT P6SM -RA BKN025 OVC035
     FM240000 17011KT P6SM -RA SCT008 BKN015 OVC025
     FM240600 17011G18KT 5SM -RA BKN020 OVC030=



000
FTUS46 KPQR 231133
TAFTTD
TAF
KTTD 231133Z 2312/2412 20011KT P6SM -RA SCT025 OVC040
      TEMPO 2313/2317 BKN025 BKN040
     FM232000 19011KT P6SM -RA BKN025 OVC035
     FM240000 18014G25KT P6SM -RA BKN015 OVC025=



000
FTUS46 KPQR 231133
TAFHIO
TAF
KHIO 231133Z 2312/2412 19011KT P6SM -RA SCT025 OVC040
      TEMPO 2313/2317 BKN025 BKN040
     FM231800 21011KT P6SM -RA BKN025 OVC035
     FM240000 17009KT P6SM -RA SCT008 BKN015 OVC025
     FM240600 17013KT P6SM -RA SCT015 OVC030=



000
FTUS46 KPQR 231133
TAFSLE
TAF
KSLE 231133Z 2312/2412 19013G18KT P6SM -SHRA SCT025 OVC040
     FM231400 19012KT P6SM -RA BKN025 OVC040
     FM232000 19015G25KT P6SM -RA BKN025 OVC035
     FM240000 18012KT P6SM -RA SCT015 OVC025
     FM240700 18016G25KT P6SM -RA BKN030 OVC040=



000
FTUS46 KPQR 231133
TAFAST
TAF
KAST 231133Z 2312/2412 21008KT P6SM -RA SCT025 OVC040
     FM231500 20011KT 6SM -RA SCT012 OVC025
     FM231700 20012KT 5SM -RA SCT008 OVC012
     FM232100 20012G21KT 3SM -RA SCT004 OVC008
     FM240300 21015G25KT 5SM -RA SCT008 BKN015 OVC025=



000
FTUS46 KPQR 231133
TAFEUG
TAF
KEUG 231133Z 2312/2412 19009KT P6SM -SHRA SCT025 OVC040
     FM231600 19012KT P6SM -RA SCT025 OVC040
     FM232200 18012G22KT P6SM -RA BKN025 OVC035
     FM240600 17014G25KT P6SM -RA SCT025 OVC040=



000
FTUS46 KPQR 231133
TAFPDX
TAF
KPDX 231133Z 2312/2412 19011KT P6SM -RA SCT025 OVC040
      TEMPO 2313/2317 BKN025 BKN040
     FM232000 18014KT P6SM -RA BKN025 OVC035
     FM240000 18011KT P6SM -RA BKN015 OVC025
     FM240600 17015G25KT P6SM -RA SCT015 OVC030=



000
FTUS46 KPQR 231133
TAFONP
TAF
KONP 231133Z 2312/2412 20015G24KT 6SM -RA BR SCT012 BKN025 OVC035
     FM231400 20017G26KT 4SM -RA BKN012 OVC025
     FM231700 18020G29KT 3SM -RA BKN008 OVC012
     FM232100 20023G31KT 2SM -RA BKN004 OVC008
     FM240300 21028G37KT 4SM -RA SCT008 BKN015 OVC025=



000
FTUS46 KPQR 231116 AAA
TAFTTD
TAF AMD
KTTD 231116Z 2311/2406 20011KT P6SM -RA SCT025 OVC040
      TEMPO 2313/2317 BKN025 BKN040
     FM232000 19011KT P6SM -RA BKN025 OVC035
     FM240500 18014G25KT P6SM -RA BKN015 OVC025=



000
FTUS46 KPQR 231115 AAA
TAFHIO
TAF AMD
KHIO 231115Z 2311/2406 19011KT P6SM -RA SCT025 OVC040
      TEMPO 2313/2317 BKN025 BKN040
     FM231800 17009KT P6SM -RA BKN025 OVC035
     FM240500 18012G22KT P6SM -RA SCT008 BKN015 OVC025=



000
FTUS46 KPQR 231108 AAA
TAFAST
TAF AMD
KAST 231108Z 2311/2406 21008KT P6SM -RA SCT025 OVC040
     FM231500 20011KT 6SM -RA SCT012 OVC025
     FM231700 20012KT 5SM -RA SCT008 OVC012
     FM232100 20012G21KT 3SM -RA SCT004 OVC008
     FM240300 21015G25KT 5SM -RA SCT008 BKN015 OVC025=



000
FTUS46 KPQR 231105 AAB
TAFONP
TAF AMD
KONP 231105Z 2311/2406 20015G24KT 6SM -RA BR SCT012 BKN025 OVC035
     FM231400 20017G26KT 4SM -RA BKN012 OVC025
     FM231700 18020G29KT 3SM -RA BKN008 OVC012
     FM232100 20023G31KT 2SM -RA BKN004 OVC008
     FM240300 21028G37KT 4SM -RA SCT008 BKN015 OVC025=



000
FTUS46 KPQR 231100 AAC
TAFPDX
TAF AMD
KPDX 231100Z 2311/2406 19011KT P6SM -RA SCT025 OVC040
      TEMPO 2313/2317 BKN025 BKN040
     FM232000 17009KT P6SM -RA BKN025 OVC035
     FM240500 18012G22KT P6SM -RA BKN015 OVC025=



000
FTUS46 KPQR 230909 AAA
TAFEUG
TAF AMD
KEUG 230909Z 2309/2406 19009KT P6SM -SHRA SCT025 OVC040
     FM231600 19012KT P6SM -RA SCT025 OVC040
     FM232200 18012G22KT P6SM -RA BKN025 OVC035=



000
FTUS46 KPQR 230908 AAA
TAFONP
TAF AMD
KONP 230908Z 2309/2406 20012G20KT 6SM -RA BR SCT012 BKN025 OVC035
      TEMPO 2309/2313 SCT025 OVC035
     FM231500 20010G18KT P6SM -RA BKN015 OVC025
     FM231800 18020G27KT P6SM -RA SCT008 BKN015 OVC025
     FM232300 20023G33KT 5SM -RA BKN008 OVC012
     FM240545 21028G40KT P6SM -RA SCT008 BKN015 OVC025=



000
FTUS46 KPQR 230818 AAB
TAFPDX
TAF AMD
KPDX 230818Z 2308/2406 19011KT P6SM -SHRA BKN025 OVC040
      TEMPO 2309/2313 SCT025 BKN040
     FM231600 19012KT P6SM -SHRA SCT025 BKN040
     FM232300 18012G22KT P6SM -RA BKN025 OVC035=



000
FTUS46 KPQR 230817 AAA
TAFPDX
TAF AMD
KPDX 230817Z 2308/2406 19011KT P6SM -SHRA BKN025 OVC040
     FM231600 19012KT P6SM -SHRA SCT025 BKN040
     FM232300 18012G22KT P6SM -RA BKN025 OVC035=



000
FTUS46 KPQR 230520
TAFEUG
TAF
KEUG 230520Z 2306/2406 19013G18KT P6SM -RA SCT025 OVC035
     FM230800 19013G18KT P6SM -SHRA SCT025 OVC040
     FM231400 19012KT P6SM -RA BKN025 OVC040
     FM232100 18012G22KT P6SM -RA BKN025 OVC035=



000
FTUS46 KPQR 230520
TAFPDX
TAF
KPDX 230520Z 2306/2406 19011KT P6SM -RA SCT025 OVC035
     FM230800 19013G17KT P6SM -SHRA SCT025 OVC040
     FM231400 19012KT P6SM -RA BKN025 OVC040
     FM232100 18012G22KT P6SM -RA BKN025 OVC035=



000
FTUS46 KPQR 230520
TAFTTD
TAF
KTTD 230520Z 2306/2406 21010KT P6SM -RA SCT025 OVC035
     FM230800 19013G17KT P6SM -SHRA SCT025 OVC040
     FM231400 19012KT P6SM -RA BKN025 OVC040
     FM232100 18012G22KT P6SM -RA BKN025 OVC035=



000
FTUS46 KPQR 230520
TAFHIO
TAF
KHIO 230520Z 2306/2406 24010KT P6SM -RA SCT025 OVC035
     FM230800 19013G17KT P6SM -SHRA SCT025 OVC040
     FM231400 19012KT P6SM -RA BKN025 OVC040
     FM232100 18012G18KT P6SM -RA BKN025 OVC035=



000
FTUS46 KPQR 230520
TAFSLE
TAF
KSLE 230520Z 2306/2406 19013G18KT P6SM -RA SCT025 OVC035
     FM230800 19013G18KT P6SM -SHRA SCT025 OVC040
     FM231400 19012KT P6SM -RA BKN025 OVC040
     FM232000 19015G25KT P6SM -RA BKN025 OVC035=



000
FTUS46 KPQR 230520
TAFONP
TAF
KONP 230520Z 2306/2406 20012G18KT 6SM -RA BR SCT012 OVC035
     FM230900 22012KT 6SM -SHRA SCT012 OVC020
     FM231200 20010G18KT P6SM -RA BKN015 OVC020
     FM231800 18020G30KT P6SM -RA BKN015 OVC025=



000
FTUS46 KPQR 230520
TAFAST
TAF
KAST 230520Z 2306/2406 20012G18KT 4SM -RA BR SCT015 OVC035
     FM230900 22012KT P6SM -SHRA SCT015 OVC025
     FM231200 20010G18KT P6SM -RA BKN025 OVC040
     FM231800 18015G25KT P6SM -RA BKN025 OVC035=



000
FTUS46 KPQR 230257 AAA
TAFPDX
TAF AMD
KPDX 230257Z 2303/2324 19011KT P6SM -RA SCT025 OVC035
     FM230800 19013G17KT P6SM -SHRA SCT025 OVC040
     FM231400 19012KT P6SM -RA BKN025 OVC040
     FM232100 18012G22KT P6SM -RA BKN025 OVC035=



000
FTUS46 KPQR 222326
TAFTTD
TAF
KTTD 222326Z 2300/2324 21010KT P6SM -SHRA SCT030 BKN045 BKN080
     FM230200 19013KT P6SM -RA SCT025 OVC035
     FM230800 19013G17KT P6SM -SHRA SCT025 OVC040
     FM231400 19012KT P6SM -RA BKN025 OVC040=



000
FTUS46 KPQR 222326
TAFHIO
TAF
KHIO 222326Z 2300/2324 24010KT P6SM -SHRA SCT025 BKN045 BKN080
     FM230100 19013KT P6SM -RA SCT025 OVC035
     FM230700 19013G17KT P6SM -SHRA SCT025 OVC040
     FM231400 19012KT P6SM -RA BKN025 OVC040=



000
FTUS46 KPQR 222326
TAFAST
TAF
KAST 222326Z 2300/2324 20012G22KT 6SM -RA SCT025 OVC040
     FM230200 20012G18KT 4SM -RA BR SCT015 OVC035
     FM230500 22012KT P6SM -SHRA SCT015 OVC025
     FM231200 20010G18KT P6SM -RA BKN025 OVC040=



000
FTUS46 KPQR 222326
TAFEUG
TAF
KEUG 222326Z 2300/2324 22012G18KT P6SM -SHRA SCT030 BKN045 BKN080
     FM230100 19013G18KT P6SM -RA SCT025 OVC035
     FM230800 19013G18KT P6SM -SHRA SCT025 OVC040
     FM231400 19012KT P6SM -RA BKN025 OVC040=



000
FTUS46 KPQR 222326
TAFPDX
TAF
KPDX 222326Z 2300/2324 21010KT P6SM -SHRA SCT030 BKN045 BKN060
     FM230200 19013KT P6SM -RA SCT025 OVC035
     FM230800 19013G17KT P6SM -SHRA SCT025 OVC040
     FM231400 19012KT P6SM -RA BKN025 OVC040=



000
FTUS46 KPQR 222326
TAFONP
TAF
KONP 222326Z 2300/2324 22018G27KT 6SM -RA SCT025 SCT035 OVC060
     FM230100 20017G27KT 6SM -RA SCT015 BKN025 OVC035
     FM230300 20017G27KT 4SM -RA BR SCT012 OVC020
     FM230500 22012KT 6SM -SHRA SCT012 OVC020
     FM231200 20010KT P6SM -RA BKN015 OVC020=



000
FTUS46 KPQR 222326
TAFSLE
TAF
KSLE 222326Z 2300/2324 22014G21KT P6SM -SHRA SCT030 BKN045 BKN080
     FM230100 19013G18KT P6SM -RA SCT025 OVC035
     FM230800 19013G18KT P6SM -SHRA SCT025 OVC040
     FM231400 19012KT P6SM -RA BKN025 OVC040=



000
FTUS46 KPQR 222145 AAB
TAFONP
TAF AMD
KONP 222145Z 2222/2318 22018G27KT P6SM VCSH SCT025 SCT035 BKN060
      TEMPO 2222/2223 5SM -SHRA SCT015 BKN025
     FM222300 20017G27KT 6SM -RA SCT015 BKN025 OVC035
     FM230100 20017G27KT 4SM -RA BR SCT012 OVC020
     FM230500 22012KT 6SM -SHRA SCT012 OVC020=



000
FTUS46 KPQR 222101 AAA
TAFPDX
TAF AMD
KPDX 222101Z 2221/2318 21010KT P6SM -SHRA SCT030 BKN045 BKN060
     FM230200 19013KT P6SM -RA SCT025 OVC035
     FM230800 19013G17KT P6SM -SHRA SCT025 OVC040=



000
FTUS46 KPQR 221945 AAC
TAFAST
TAF AMD
KAST 221945Z 2220/2318 20014G22KT P6SM VCSH SCT025 BKN040 OVC050
      TEMPO 2220/2224 5SM -SHRA BKN025 OVC040
     FM230000 20012G22KT 6SM -RA SCT025 OVC035
     FM230200 20012G18KT 4SM -RA BR SCT015 OVC025
     FM230500 22012KT P6SM -SHRA SCT015 OVC025=



000
FTUS46 KPQR 221944 AAB
TAFAST
TAF AMD
KAST 221944Z 2220/2318 20014G22KT P6SM VCSH SCT025 BKN040 OVC050
      TEMPO 2220/2224 BKN025 OVC040
     FM230000 20012G22KT 6SM -RA SCT025 OVC035
     FM230200 20012G18KT 4SM -RA BR SCT015 OVC025
     FM230500 22012KT P6SM -SHRA SCT015 OVC025=



000
FTUS46 KPQR 221943 AAA
TAFONP
TAF AMD
KONP 221943Z 2220/2318 22015G25KT P6SM VCSH FEW025 SCT035 BKN060
      TEMPO 2220/2223 BKN035
     FM222300 20015G25KT 6SM -RA SCT025 OVC035
     FM230100 20015G25KT 4SM -RA BR SCT012 OVC020
     FM230500 22012KT 6SM -SHRA SCT012 OVC020=



000
FTUS46 KPQR 221801 AAA
TAFEUG
TAF AMD
KEUG 221801Z 2218/2318 18011KT P6SM -SHRA SCT030 BKN045
     FM222000 19012G18KT P6SM -SHRA SCT030 BKN045 BKN080
     FM230100 19013G18KT P6SM -RA SCT025 OVC035
     FM230800 19013G18KT P6SM -SHRA SCT025 OVC040=



000
FTUS46 KPQR 221801 AAA
TAFAST
TAF AMD
KAST 221801Z 2218/2318 20012G18KT P6SM -SHRA SCT025 BKN040
      TEMPO 2218/2220 BKN025 OVC040
     FM222000 22014G22KT P6SM VCSH SCT025 BKN040
      TEMPO 2220/2224 BKN025 OVC040
     FM230000 20012G22KT 6SM -RA SCT025 OVC035
     FM230200 20012G18KT 4SM -RA BR SCT015 OVC025
     FM230500 22012KT P6SM -SHRA SCT015 OVC025=



000
FTUS46 KPQR 221724
TAFHIO
TAF
KHIO 221724Z 2218/2318 24005KT P6SM VCSH SCT040 BKN060
     FM222100 20010KT P6SM -SHRA SCT025 BKN045 BKN080
     FM230100 19013KT P6SM -RA SCT025 OVC035
     FM230700 19013G17KT P6SM -SHRA SCT025 OVC040=



000
FTUS46 KPQR 221724
TAFONP
TAF
KONP 221724Z 2218/2318 22008KT P6SM VCSH FEW025 SCT035 BKN060
     FM222000 22015G25KT P6SM VCSH FEW025 SCT035 BKN060
     FM222300 20015G25KT 6SM -RA SCT025 OVC035
     FM230100 20015G25KT 4SM -RA BR SCT012 OVC020
     FM230500 22012KT 6SM -SHRA SCT012 OVC020=



000
FTUS46 KPQR 221724
TAFAST
TAF
KAST 221724Z 2218/2318 25008KT P6SM -SHRA SCT025 BKN040
      TEMPO 2218/2220 BKN025 OVC040
     FM222000 22014G22KT P6SM VCSH SCT025 BKN040
      TEMPO 2220/2224 BKN025 OVC040
     FM230000 20012G22KT 6SM -RA SCT025 OVC035
     FM230200 20012G18KT 4SM -RA BR SCT015 OVC025
     FM230500 22012KT P6SM -SHRA SCT015 OVC025=



000
FTUS46 KPQR 221724
TAFSLE
TAF
KSLE 221724Z 2218/2318 19010KT P6SM VCSH SCT040 BKN060
     FM222000 20014G21KT P6SM -SHRA SCT030 BKN045 BKN080
     FM230100 19013G18KT P6SM -RA SCT025 OVC035
     FM230800 19013G18KT P6SM -SHRA SCT025 OVC040=



000
FTUS46 KPQR 221724
TAFTTD
TAF
KTTD 221724Z 2218/2318 23005KT P6SM VCSH SCT025 BKN045
     FM222100 21010KT P6SM -SHRA SCT030 BKN045 BKN080
     FM230200 19013KT P6SM -RA SCT025 OVC035
     FM230800 19013G17KT P6SM -SHRA SCT025 OVC040=



000
FTUS46 KPQR 221724
TAFEUG
TAF
KEUG 221724Z 2218/2318 20011KT P6SM VCSH SCT035 BKN050
     FM222000 20012G18KT P6SM -SHRA SCT030 BKN045 BKN080
     FM230100 19013G18KT P6SM -RA SCT025 OVC035
     FM230800 19013G18KT P6SM -SHRA SCT025 OVC040=



000
FTUS46 KPQR 221724
TAFPDX
TAF
KPDX 221724Z 2218/2318 25005KT P6SM VCSH SCT030 BKN060
     FM222100 21010KT P6SM -SHRA SCT030 BKN045 BKN080
     FM230200 19013KT P6SM -RA SCT025 OVC035
     FM230800 19013G17KT P6SM -SHRA SCT025 OVC040=



000
FTUS46 KPQR 221507 AAA
TAFPDX
TAF AMD
KPDX 221507Z 2215/2312 30005KT P6SM VCSH SCT030 BKN050
     FM221800 26005KT P6SM VCSH SCT040 BKN060
     FM222100 21011KT P6SM -SHRA BKN050 OVC080
     FM230300 19009KT P6SM -RA SCT025 OVC040=



000
FTUS46 KPQR 221120
TAFONP
TAF
KONP 221120Z 2212/2312 31009KT P6SM -SHRA SCT025 BKN040
      TEMPO 2213/2216 BKN025 OVC040
     FM221700 24008KT P6SM VCSH FEW025 SCT040
     FM222000 22012KT P6SM VCSH FEW025 SCT040
     FM222300 22012G22KT P6SM -RA SCT025 OVC050
     FM230900 20015G25KT 6SM -RA BR FEW008 SCT015 OVC025=



000
FTUS46 KPQR 221120
TAFHIO
TAF
KHIO 221120Z 2212/2312 29005KT P6SM -SHRA FEW008 SCT012 BKN040
      TEMPO 2213/2216 SCT008 BKN012 BKN040
     FM221600 27005KT P6SM VCSH SCT040 BKN060
     FM222100 21011KT P6SM -SHRA BKN050 OVC080
     FM230300 19009KT P6SM -RA SCT025 OVC040=



000
FTUS46 KPQR 221120
TAFTTD
TAF
KTTD 221120Z 2212/2312 30005KT P6SM -SHRA FEW008 SCT012 BKN040
      TEMPO 2213/2216 SCT008 BKN012 BKN040
     FM221600 26005KT P6SM VCSH SCT040 BKN060
     FM222100 21011KT P6SM -SHRA BKN050 OVC080
     FM230300 19009KT P6SM -RA SCT025 OVC040=



000
FTUS46 KPQR 221120
TAFSLE
TAF
KSLE 221120Z 2212/2312 26007KT P6SM -SHRA FEW008 SCT012 BKN040
      TEMPO 2213/2216 SCT008 BKN012 BKN040
     FM221600 24005KT P6SM VCSH SCT040 BKN060
     FM222100 21013G20KT P6SM -SHRA BKN050 OVC080
     FM230400 19011KT P6SM -RA SCT025 OVC040=



000
FTUS46 KPQR 221120
TAFAST
TAF
KAST 221120Z 2212/2312 27008KT P6SM -SHRA SCT025 BKN040
      TEMPO 2213/2216 BKN025 OVC040
     FM221700 24008KT P6SM VCSH FEW025 SCT040
     FM222100 22012KT P6SM VCSH FEW025 SCT040
     FM222300 22012G22KT P6SM -RA SCT025 OVC050
     FM230300 21011KT P6SM -SHRA FEW015 BKN030=



000
FTUS46 KPQR 221120
TAFEUG
TAF
KEUG 221120Z 2212/2312 26005KT P6SM -SHRA FEW008 SCT012 BKN040
      TEMPO 2213/2216 SCT008 BKN012 BKN040
     FM221600 23005KT P6SM VCSH SCT040 BKN060
     FM222100 21012KT P6SM -SHRA BKN050 OVC080
     FM230500 19010KT P6SM -RA SCT025 OVC040=



000
FTUS46 KPQR 221120
TAFPDX
TAF
KPDX 221120Z 2212/2312 30005KT P6SM -SHRA FEW008 SCT012 BKN040
      TEMPO 2213/2216 SCT008 BKN012 BKN040
     FM221600 26005KT P6SM VCSH SCT040 BKN060
     FM222100 21011KT P6SM -SHRA BKN050 OVC080
     FM230300 19009KT P6SM -RA SCT025 OVC040=



000
FTUS46 KPQR 221030 AAB
TAFSLE
TAF AMD
KSLE 221030Z 2211/2306 26007KT P6SM -SHRA FEW008 SCT012 BKN040
      TEMPO 2212/2216 SCT008 BKN012 BKN040
     FM221600 24005KT P6SM VCSH SCT040 BKN060
     FM222100 21013G20KT P6SM -SHRA BKN050 OVC080
     FM230400 19011KT P6SM -RA SCT025 OVC040=



000
FTUS46 KPQR 221029 AAA
TAFEUG
TAF AMD
KEUG 221029Z 2210/2306 26005KT P6SM -SHRA FEW008 SCT012 BKN040
      TEMPO 2212/2216 SCT008 BKN012 BKN040
     FM221600 23005KT P6SM VCSH SCT040 BKN060
     FM222100 21012KT P6SM -SHRA BKN050 OVC080
     FM230500 19010KT P6SM -RA SCT025 OVC040=



000
FTUS46 KPQR 221028 AAA
TAFSLE
TAF AMD
KSLE 221028Z 2210/2306 30005KT P6SM -SHRA FEW008 SCT012 BKN040
      TEMPO 2212/2216 SCT008 BKN012 BKN040
     FM221600 26005KT P6SM VCSH SCT040 BKN060
     FM222100 21013G20KT P6SM -SHRA BKN050 OVC080
     FM230300 19011KT P6SM -RA SCT025 OVC040=



000
FTUS46 KPQR 221026 AAA
TAFAST
TAF AMD
KAST 221026Z 2210/2306 27008KT P6SM -SHRA SCT025 BKN040
      TEMPO 2212/2216 BKN025 OVC040
     FM221700 24008KT P6SM VCSH FEW025 SCT040
     FM222100 22012KT P6SM VCSH FEW025 SCT040
     FM222300 22012G22KT P6SM -RA SCT025 OVC050
     FM230300 21011KT P6SM -SHRA FEW015 BKN030=



000
FTUS46 KPQR 221023 AAA
TAFONP
TAF AMD
KONP 221023Z 2210/2306 31009KT P6SM -SHRA SCT025 BKN040
      TEMPO 2212/2216 BKN025 OVC040
     FM221700 24008KT P6SM VCSH FEW025 SCT040
     FM222000 22012KT P6SM VCSH FEW025 SCT040
     FM222300 22012G22KT P6SM -RA SCT025 OVC050
     FM230530 20015G25KT 6SM -RA BR FEW008 SCT015 OVC025=



000
FTUS46 KPQR 221012 AAA
TAFTTD
TAF AMD
KTTD 221012Z 2210/2306 30005KT P6SM -SHRA FEW008 SCT012 BKN040
      TEMPO 2212/2216 SCT008 BKN012 BKN040
     FM221600 26005KT P6SM VCSH SCT040 BKN060
     FM222100 21011KT P6SM -SHRA BKN050 OVC080
     FM230300 19009KT P6SM -RA SCT025 OVC040=



000
FTUS46 KPQR 221012 AAA
TAFHIO
TAF AMD
KHIO 221012Z 2210/2306 29005KT P6SM -SHRA FEW008 SCT012 BKN040
      TEMPO 2212/2216 SCT008 BKN012 BKN040
     FM221600 27005KT P6SM VCSH SCT040 BKN060
     FM222100 21011KT P6SM -SHRA BKN050 OVC080
     FM230300 19009KT P6SM -RA SCT025 OVC040=



000
FTUS46 KPQR 221010 AAA
TAFPDX
TAF AMD
KPDX 221010Z 2210/2306 30005KT P6SM -SHRA FEW008 SCT012 BKN040
      TEMPO 2212/2216 SCT008 BKN012 BKN040
     FM221600 26005KT P6SM VCSH SCT040 BKN060
     FM222100 21011KT P6SM -SHRA BKN050 OVC080
     FM230300 19009KT P6SM -RA SCT025 OVC040=



000
FTUS46 KPQR 220520
TAFEUG
TAF
KEUG 220520Z 2206/2306 25007KT P6SM -RA BKN040 OVC060
     FM221100 23004KT P6SM -SHRA BKN025 OVC050
     FM222200 24012KT P6SM -SHRA SCT025 OVC050
     FM230300 20008KT P6SM -RA SCT015 BKN030 OVC050=



000
FTUS46 KPQR 220520
TAFSLE
TAF
KSLE 220520Z 2206/2306 26006KT P6SM -RA BKN040 OVC060
     FM221100 23004KT P6SM -SHRA BKN030 OVC050
     FM222200 22014KT P6SM -SHRA SCT025 OVC050
     FM230300 20008KT P6SM -RA BKN035 OVC050=



000
FTUS46 KPQR 220520
TAFHIO
TAF
KHIO 220520Z 2206/2306 26004KT 6SM -RA BKN025 OVC060
     FM220700 VRB03KT P6SM -SHRA SCT018 OVC040
     FM222100 22011KT P6SM -SHRA OVC040
     FM230300 22006KT P6SM -RA BKN025 OVC040=



000
FTUS46 KPQR 220520
TAFAST
TAF
KAST 220520Z 2206/2306 30006KT P6SM -SHRA BKN015 OVC030
     FM220900 VRB04KT P6SM VCSH BKN025 OVC040
     FM222000 22012G18KT P6SM -RA SCT015 OVC030
     FM230100 19010KT P6SM -RA SCT007 OVC020=



000
FTUS46 KPQR 220520
TAFTTD
TAF
KTTD 220520Z 2206/2306 29007KT P6SM -RA OVC040
     FM220700 26004KT P6SM -SHRA SCT018 BKN030 OVC060
     FM222100 22011KT P6SM -SHRA OVC060
     FM230300 20008KT P6SM -RA BKN025 OVC050=



000
FTUS46 KPQR 220520
TAFONP
TAF
KONP 220520Z 2206/2306 30004KT 5SM -SHRA BKN020 OVC040
     FM221000 28006KT P6SM VCSH BKN025 OVC040
     FM222200 22012G22KT P6SM -RA SCT015 OVC030
     FM230100 22015G25KT 6SM -RA BR SCT007 OVC018=



000
FTUS46 KPQR 220520
TAFPDX
TAF
KPDX 220520Z 2206/2306 24008KT 6SM -RA BKN020 OVC050
     FM220700 26005KT P6SM -SHRA BKN030 OVC060
     FM222100 22013KT P6SM -SHRA OVC060
     FM230300 22007KT P6SM -RA BKN025 OVC050=



000
FTUS46 KPQR 220314 AAB
TAFPDX
TAF AMD
KPDX 220314Z 2203/2224 24008KT P6SM -RA BKN040 OVC060
     FM220800 26005KT P6SM -SHRA OVC030
     FM222100 22013KT P6SM -SHRA OVC050
     FM222300 22007KT P6SM -RA BKN025 OVC050=



000
FTUS46 KPQR 220200 AAB
TAFHIO
TAF AMD
KHIO 220200Z 2202/2224 22008KT P6SM -RA BKN040 OVC060
      TEMPO 2202/2206 4SM -RA BR
     FM220700 26005KT P6SM -SHRA OVC030
     FM222000 22011KT P6SM -RA OVC030=



000
FTUS46 KPQR 220123 AAA
TAFONP
TAF AMD
KONP 220123Z 2201/2224 30009KT 3SM -RA BR BKN004 OVC025
      TEMPO 2201/2203 2SM RA BR OVC004
     FM220700 VRB03KT P6SM -SHRA BKN020 OVC040
     FM221000 28006KT P6SM VCSH BKN025 OVC040
     FM222200 22012KT P6SM -RA SCT015 OVC030=



000
FTUS46 KPQR 220027 AAA
TAFHIO
TAF AMD
KHIO 220027Z 2200/2224 22008KT P6SM -RA BKN040 OVC060
     FM220700 26005KT P6SM -SHRA OVC030
     FM222000 22011KT P6SM -RA OVC030=



000
FTUS46 KPQR 220026 AAA
TAFPDX
TAF AMD
KPDX 220026Z 2200/2224 24008KT P6SM -RA BKN040 OVC060
     FM220800 26005KT P6SM -SHRA OVC030
     FM222100 22011KT P6SM -RA OVC050=



000
FTUS46 KPQR 212320
TAFPDX
TAF
KPDX 212320Z 2200/2224 33006KT P6SM SCT080 BKN120 OVC200
     FM220200 29008KT P6SM -RA OVC040
     FM220800 26005KT P6SM -SHRA OVC030
     FM222100 22011KT P6SM -RA OVC050=



000
FTUS46 KPQR 212320
TAFONP
TAF
KONP 212320Z 2200/2224 30009KT 4SM -RA BR SCT012 OVC025
     FM220700 VRB03KT P6SM -SHRA BKN020 OVC040
     FM221000 28006KT P6SM VCSH BKN025 OVC040
     FM222200 22012KT P6SM -RA SCT015 OVC030=



000
FTUS46 KPQR 212320
TAFHIO
TAF
KHIO 212320Z 2200/2224 22006KT P6SM SCT080 BKN120 OVC200
     FM220200 29008KT P6SM -RA OVC040
     FM220700 26005KT P6SM -SHRA OVC030
     FM222000 22011KT P6SM -RA OVC030=



000
FTUS46 KPQR 212320
TAFAST
TAF
KAST 212320Z 2200/2224 32008KT P6SM -RA BKN015 OVC030
     FM220500 30006KT P6SM -SHRA BKN025 OVC040
     FM220900 VRB04KT P6SM VCSH BKN025 OVC040
     FM222000 22012G18KT P6SM -RA SCT015 OVC030=



000
FTUS46 KPQR 212320
TAFEUG
TAF
KEUG 212320Z 2200/2224 25007KT P6SM -RA BKN040 OVC060
     FM220400 26006KT P6SM -RA OVC025
     FM221100 23004KT P6SM -SHRA OVC030
     FM222200 24012KT P6SM -RA SCT025 OVC050=



000
FTUS46 KPQR 212320
TAFSLE
TAF
KSLE 212320Z 2200/2224 25007KT P6SM -RA BKN040 OVC060
     FM220400 26006KT P6SM -RA OVC025
     FM221100 23004KT P6SM -SHRA OVC030
     FM222200 22014KT P6SM -RA SCT025 OVC050=



000
FTUS46 KPQR 212320
TAFTTD
TAF
KTTD 212320Z 2200/2224 30005KT P6SM SCT080 BKN120 OVC200
     FM220200 29007KT P6SM -RA OVC040
     FM220800 26004KT P6SM -SHRA OVC030
     FM222100 22011KT P6SM -RA OVC050=



000
FTUS46 KPQR 212116 AAB
TAFAST
TAF AMD
KAST 212116Z 2121/2218 25009KT P6SM -SHRA BKN020 OVC030
     FM220000 32008KT P6SM -RA BKN015 OVC030
     FM220500 30006KT P6SM -SHRA BKN025 OVC040
     FM220900 VRB03KT P6SM VCSH BKN025 OVC040=



000
FTUS46 KPQR 211949 AAA
TAFAST
TAF AMD
KAST 211949Z 2120/2218 VRB04KT P6SM VCSH SCT030 OVC045
      TEMPO 2120/2122 BKN030
     FM212200 30011KT P6SM -RA BKN020 OVC030
     FM220000 32008KT P6SM -RA BKN015 OVC030
     FM220500 30006KT P6SM -SHRA BKN025 OVC040
     FM220900 VRB03KT P6SM VCSH BKN025 OVC040=



000
FTUS46 KPQR 211800 AAA
TAFONP
TAF AMD
KONP 211800Z 2118/2218 VRB03KT 5SM BR SCT050 SCT120 BKN250
     FM212000 30009KT 5SM BR SCT040 BKN080
     FM212200 32009KT 5SM BR VCSH BKN035 OVC050
     FM220000 30008KT 4SM -RA BR SCT012 OVC018
     FM220700 VRB03KT P6SM -SHRA BKN020 OVC040
     FM221000 VRB03KT P6SM VCSH BKN025 OVC040=



000
FTUS46 KPQR 211723
TAFTTD
TAF
KTTD 211723Z 2118/2218 10007KT P6SM SCT080 SCT120 BKN200
     FM212200 30005KT P6SM SCT080 BKN120 BKN200
     FM220200 29007KT P6SM -RA OVC040
     FM220500 29007KT P6SM -RA OVC030
     FM221100 26004KT P6SM -SHRA OVC030=



000
FTUS46 KPQR 211723
TAFAST
TAF
KAST 211723Z 2118/2218 VRB04KT P6SM VCSH SCT030 OVC040
      TEMPO 2118/2120 BKN030
     FM212000 30011KT P6SM -RA BKN020 OVC030
     FM212200 32008KT P6SM -RA BKN015 OVC030
     FM220500 30006KT P6SM -SHRA BKN025 OVC040
     FM220900 VRB03KT P6SM VCSH BKN025 OVC040=



000
FTUS46 KPQR 211723
TAFHIO
TAF
KHIO 211723Z 2118/2218 14003KT P6SM SCT080 SCT120 BKN200
     FM212200 33006KT P6SM SCT080 BKN120 BKN200
     FM220200 29008KT P6SM -RA OVC040
     FM220500 29008KT P6SM -RA OVC030
     FM221100 26005KT P6SM -SHRA OVC030=



000
FTUS46 KPQR 211723
TAFEUG
TAF
KEUG 211723Z 2118/2218 16005KT P6SM SCT080 SCT120 BKN200
     FM212300 22007KT P6SM VCSH SCT080 BKN120 BKN200
     FM220200 25007KT P6SM -RA OVC040
     FM220400 26006KT P6SM -RA OVC025
     FM221100 23004KT P6SM -SHRA OVC030=



000
FTUS46 KPQR 211723
TAFPDX
TAF
KPDX 211723Z 2118/2218 10006KT P6SM SCT080 SCT120 BKN200
     FM212200 33006KT P6SM SCT080 BKN120 BKN200
     FM220200 29008KT P6SM -RA OVC040
     FM220500 29008KT P6SM -RA OVC030
     FM221100 26005KT P6SM -SHRA OVC030=



000
FTUS46 KPQR 211723
TAFSLE
TAF
KSLE 211723Z 2118/2218 16005KT P6SM SCT080 SCT120 BKN200
     FM212300 22007KT P6SM VCSH SCT080 BKN120 BKN200
     FM220200 25007KT P6SM -RA OVC040
     FM220400 26006KT P6SM -RA OVC025
     FM221100 23004KT P6SM -SHRA OVC030=



000
FTUS46 KPQR 211723
TAFONP
TAF
KONP 211723Z 2118/2218 VRB03KT P6SM SCT050 SCT120 BKN250
     FM212000 30009KT P6SM SCT040 BKN080
     FM212200 32009KT P6SM VCSH BKN035 OVC050
     FM220000 30008KT 4SM -RA BR SCT012 OVC018
     FM220700 VRB03KT P6SM -SHRA BKN020 OVC040
     FM221000 VRB03KT P6SM VCSH BKN025 OVC040=



    US Dept of Commerce
    National Oceanic and Atmospheric Administration
    National Weather Service
    1325 East West Highway
    Silver Spring, MD 20910
    Page Author: NWS Internet Services Team
Disclaimer
Information Quality
Credits
Glossary
Privacy Policy
Freedom of Information Act (FOIA)
About Us
Career Opportunities